Accueil
METAR-TAF:

METAR-TAF

Aéroports :

Wunstorf, Allemagne

latitude: 52-27N, longitude: 009-26E, altitude: 57 m

Observation

Le bulletin a été fait il y a 1 heure et 9 minutes, à 11:20 UTC
Vent 12 kt de ouest
Température 22°C
Humidité 57%
Pression 1006 hPa
Visibilité 10 km ou plus
Nuages épars à une hauteur de 3500 ft
Nuages fragmentés à une hauteur de 19000 ft

METAR: ETNW 271120Z 27012KT 9999 SCT035 BKN190 22/13 Q1006 BLU

Heure: 14:29 (12:29 UTC)


TAF: absent

Observations et prévisions météorologiques de plus de 4000 aéroports (messages METAR et TAF).

Les stations disponibles sont représentées par des disques jaunes et rouges sur la carte.

Passer la souris dessus pour voir le nom de la station.

Cliquer dessus pour voir les observations et prévisions météorologiques.

Pour changer de carte: cliquez sur les boutons verts avec une croix noire pour zoomer, sur le bouton vert avec un tiret pour effectuer un zoom arrière, ou sur les flèches vertes pour les cartes adjacentes.


METAR-TAF: